Time;durP1;ratioP1;P1;durP2;ratioP2;P2;SDS_P1;SDS_P2;PMS_P1;PMS_P2;Temp;Humidity;BMP_temperature;BMP_pressure;BME280_temperature;BME280_humidity;BME280_pressure;Samples;Min_cycle;Max_cycle;Signal;HPM_P1;HPM_P2
2022/03/30 00:00:26;;;;;;;16.48;5.45;;;15.00;1.00;;;;;;5007789;28;20104;-92
2022/03/30 00:02:52;;;;;;;17.05;5.43;;;15.00;1.00;;;;;;5010737;28;20044;-91
2022/03/30 00:05:17;;;;;;;11.95;5.18;;;14.90;1.00;;;;;;5011856;28;20026;-92
2022/03/30 00:07:43;;;;;;;15.40;5.47;;;14.90;1.00;;;;;;5012174;28;20080;-91
2022/03/30 00:10:09;;;;;;;10.13;4.85;;;14.90;1.00;;;;;;5011827;28;20494;-92
2022/03/30 00:12:35;;;;;;;14.63;5.38;;;14.90;1.00;;;;;;5013520;28;20037;-91
2022/03/30 00:15:01;;;;;;;16.80;5.53;;;14.90;1.00;;;;;;5016444;28;20203;-92
2022/03/30 00:17:26;;;;;;;17.00;5.68;;;14.90;1.00;;;;;;5016260;28;20042;-91
2022/03/30 00:19:52;;;;;;;13.88;5.20;;;15.00;1.00;;;;;;5015059;28;20026;-92
2022/03/30 00:22:18;;;;;;;17.17;4.80;;;15.00;1.00;;;;;;5016123;28;20065;-92
2022/03/30 00:24:44;;;;;;;10.38;5.05;;;15.10;1.00;;;;;;5016074;28;20096;-91
2022/03/30 00:27:12;;;;;;;14.73;5.25;;;15.00;1.00;;;;;;5016001;28;20060;-91
2022/03/30 00:29:38;;;;;;;15.80;5.10;;;15.00;1.00;;;;;;5016067;28;20052;-91
2022/03/30 00:32:05;;;;;;;10.85;4.90;;;14.90;1.00;;;;;;5015710;28;20034;-91
2022/03/30 00:34:30;;;;;;;12.07;4.88;;;14.80;1.00;;;;;;5016285;28;20046;-92
2022/03/30 00:36:56;;;;;;;14.98;4.88;;;14.80;1.00;;;;;;5016278;28;20040;-91
2022/03/30 00:39:22;;;;;;;14.05;5.45;;;14.80;1.00;;;;;;5015342;28;20018;-91
2022/03/30 00:41:48;;;;;;;12.07;5.03;;;15.00;1.00;;;;;;5015203;28;20030;-91
2022/03/30 00:44:14;;;;;;;19.15;5.10;;;15.00;1.00;;;;;;5014374;28;20041;-91
2022/03/30 00:46:44;;;;;;;13.48;5.10;;;14.90;1.00;;;;;;5015810;28;20025;-91
2022/03/30 00:49:10;;;;;;;12.27;5.18;;;14.90;1.00;;;;;;5016058;28;20033;-91
2022/03/30 00:51:36;;;;;;;14.48;5.10;;;14.80;1.00;;;;;;5015362;28;20018;-92
2022/03/30 00:54:02;;;;;;;13.05;5.18;;;14.80;1.00;;;;;;5014720;28;20080;-91
2022/03/30 00:56:31;;;;;;;12.85;5.15;;;14.80;1.00;;;;;;5015804;28;20398;-91
2022/03/30 00:58:57;;;;;;;12.98;5.20;;;14.70;1.00;;;;;;5015468;28;20046;-90
2022/03/30 01:01:25;;;;;;;11.82;5.18;;;14.60;1.00;;;;;;5015932;28;20109;-91
2022/03/30 01:03:51;;;;;;;12.50;5.53;;;14.50;1.00;;;;;;5015737;28;20044;-91
2022/03/30 01:06:16;;;;;;;16.15;5.50;;;14.50;1.00;;;;;;5014695;28;20034;-91
2022/03/30 01:08:43;;;;;;;14.63;5.75;;;14.50;1.00;;;;;;5014595;28;20032;-91
2022/03/30 01:11:12;;;;;;;13.27;5.82;;;14.40;1.00;;;;;;5015399;28;20517;-91
2022/03/30 01:13:39;;;;;;;11.60;5.18;;;14.30;1.00;;;;;;5014343;28;20033;-91
2022/03/30 01:16:06;;;;;;;16.00;6.03;;;14.40;1.00;;;;;;5014000;28;20072;-91
2022/03/30 01:18:38;;;;;;;11.82;5.50;;;14.40;1.00;;;;;;5014878;28;20068;-91
2022/03/30 01:21:04;;;;;;;13.82;5.72;;;14.40;1.00;;;;;;5015272;28;20026;-91
2022/03/30 01:23:30;;;;;;;17.65;6.18;;;14.40;1.00;;;;;;5014541;28;20042;-91
2022/03/30 01:25:56;;;;;;;16.15;5.93;;;14.40;1.00;;;;;;5015024;28;20092;-91
2022/03/30 01:28:27;;;;;;;17.17;5.68;;;14.20;1.00;;;;;;5013588;28;20046;-91
2022/03/30 01:33:38;;;;;;;15.77;6.35;;;14.20;1.00;;;;;;5015272;28;20040;-91
2022/03/30 01:36:04;;;;;;;15.02;6.03;;;14.20;1.00;;;;;;5014151;28;20417;-90
2022/03/30 01:38:29;;;;;;;11.70;6.20;;;14.10;1.00;;;;;;5013483;28;20442;-90
2022/03/30 01:40:55;;;;;;;16.05;5.80;;;13.90;1.00;;;;;;5013920;28;20030;-91
2022/03/30 01:43:21;;;;;;;22.67;5.38;;;13.90;1.00;;;;;;5014938;28;20029;-91
2022/03/30 01:45:47;;;;;;;13.32;5.00;;;13.80;1.00;;;;;;5014759;28;20049;-91
2022/03/30 01:48:12;;;;;;;15.85;5.57;;;13.80;1.00;;;;;;5014776;28;20057;-91
2022/03/30 01:50:38;;;;;;;17.42;5.72;;;13.80;1.00;;;;;;5013732;28;20030;-91
2022/03/30 01:53:04;;;;;;;18.33;6.15;;;13.90;1.00;;;;;;5014178;28;20033;-91
2022/03/30 01:55:29;;;;;;;16.55;5.75;;;13.90;1.00;;;;;;5013581;28;20022;-91
2022/03/30 01:57:55;;;;;;;16.88;5.60;;;13.70;1.00;;;;;;5014538;28;20030;-91
2022/03/30 02:00:24;;;;;;;17.02;5.45;;;13.70;1.00;;;;;;5013769;28;20026;-91
2022/03/30 02:02:50;;;;;;;18.58;5.53;;;13.50;1.00;;;;;;5014586;28;20053;-91
2022/03/30 02:05:17;;;;;;;12.38;5.20;;;13.50;1.00;;;;;;5009294;28;20087;-91
2022/03/30 02:07:43;;;;;;;17.50;5.28;;;13.30;1.00;;;;;;5014278;28;20030;-91
2022/03/30 02:10:09;;;;;;;18.80;5.43;;;13.20;1.00;;;;;;5013824;28;20040;-91
2022/03/30 02:12:36;;;;;;;16.27;5.07;;;13.20;1.00;;;;;;5014047;28;20045;-91
2022/03/30 02:15:02;;;;;;;18.75;5.65;;;13.10;1.00;;;;;;5014022;28;20120;-91
2022/03/30 02:17:27;;;;;;;15.98;5.13;;;13.10;1.00;;;;;;5013223;28;20026;-91
2022/03/30 02:19:56;;;;;;;14.45;5.30;;;13.00;1.00;;;;;;5014572;28;20080;-91
2022/03/30 02:22:22;;;;;;;15.35;4.93;;;13.00;1.00;;;;;;5013917;28;20490;-91
2022/03/30 02:24:51;;;;;;;20.00;5.63;;;13.10;1.00;;;;;;5013128;28;20117;-90
2022/03/30 02:27:20;;;;;;;18.10;5.57;;;12.90;1.00;;;;;;5012993;28;20034;-91
2022/03/30 02:29:51;;;;;;;15.95;5.53;;;12.90;1.00;;;;;;5013948;28;20398;-91
2022/03/30 02:32:17;;;;;;;21.95;5.35;;;12.70;1.00;;;;;;5013541;28;20083;-91
2022/03/30 02:34:44;;;;;;;18.70;5.68;;;12.70;1.00;;;;;;5012627;28;20081;-90
2022/03/30 02:37:11;;;;;;;17.15;5.82;;;12.60;1.00;;;;;;5012355;28;20045;-91
2022/03/30 02:39:38;;;;;;;18.63;5.75;;;12.60;1.00;;;;;;5015391;28;20050;-91
2022/03/30 02:42:06;;;;;;;15.27;5.85;;;12.60;1.00;;;;;;5013073;28;20065;-91
2022/03/30 02:44:33;;;;;;;15.68;5.50;;;12.70;1.00;;;;;;5013136;28;20083;-91
2022/03/30 02:46:58;;;;;;;18.85;5.80;;;12.80;1.00;;;;;;5012549;28;20569;-91
2022/03/30 02:49:25;;;;;;;14.75;5.10;;;12.50;1.00;;;;;;5014001;28;20572;-91
2022/03/30 02:51:51;;;;;;;15.82;5.85;;;12.50;1.00;;;;;;5014027;28;20516;-90
2022/03/30 02:54:17;;;;;;;14.73;6.03;;;12.20;1.00;;;;;;5012344;28;20025;-90
2022/03/30 02:56:42;;;;;;;16.98;6.15;;;12.30;1.00;;;;;;5013320;28;20397;-91
2022/03/30 02:59:08;;;;;;;15.95;6.38;;;12.30;1.00;;;;;;5011999;28;20117;-91
2022/03/30 03:01:34;;;;;;;15.55;6.22;;;12.10;1.00;;;;;;5013797;28;20029;-90
2022/03/30 03:03:59;;;;;;;24.27;6.47;;;12.20;1.00;;;;;;5014044;28;20113;-91
2022/03/30 03:06:25;;;;;;;18.92;5.63;;;12.10;1.00;;;;;;5013304;28;20030;-90
2022/03/30 03:08:51;;;;;;;11.68;5.38;;;12.00;1.00;;;;;;5012772;28;20033;-90
2022/03/30 03:11:17;;;;;;;15.95;6.20;;;12.00;1.00;;;;;;5011749;28;20521;-90
2022/03/30 03:13:42;;;;;;;12.93;4.88;;;12.00;1.00;;;;;;5013313;28;20030;-90
2022/03/30 03:16:08;;;;;;;11.82;5.90;;;11.90;1.00;;;;;;5011840;28;20022;-90
2022/03/30 03:18:35;;;;;;;11.30;5.45;;;11.70;1.00;;;;;;5012720;28;20030;-91
2022/03/30 03:21:01;;;;;;;17.65;6.55;;;11.80;1.00;;;;;;5012278;28;20030;-90
2022/03/30 03:23:27;;;;;;;12.10;5.35;;;11.70;1.00;;;;;;5011807;28;20064;-90
2022/03/30 03:25:53;;;;;;;17.60;6.38;;;11.80;1.00;;;;;;5012807;28;20075;-90
2022/03/30 03:28:19;;;;;;;12.80;5.22;;;11.60;1.00;;;;;;5012681;28;20080;-90
2022/03/30 03:30:45;;;;;;;11.18;6.05;;;11.50;1.00;;;;;;5013867;28;20065;-90
2022/03/30 03:33:11;;;;;;;18.73;7.00;;;11.50;1.00;;;;;;5011963;28;20030;-90
2022/03/30 03:35:37;;;;;;;14.13;5.85;;;11.70;1.00;;;;;;5012838;28;20038;-90
2022/03/30 03:38:04;;;;;;;13.05;5.28;;;11.70;1.00;;;;;;5012896;28;20169;-90
2022/03/30 03:40:30;;;;;;;13.90;6.38;;;11.60;1.00;;;;;;5011302;28;20026;-90
2022/03/30 03:42:57;;;;;;;11.98;5.82;;;11.50;1.00;;;;;;5011551;28;20080;-90
2022/03/30 03:45:23;;;;;;;12.38;5.40;;;11.50;1.00;;;;;;4995310;28;20129;-90
2022/03/30 03:47:49;;;;;;;14.25;6.55;;;11.50;1.00;;;;;;5013376;28;20030;-90
2022/03/30 03:50:15;;;;;;;11.60;5.90;;;11.40;1.00;;;;;;5014014;28;20037;-91
2022/03/30 03:52:41;;;;;;;13.45;6.43;;;11.40;1.00;;;;;;5018271;28;20029;-91
2022/03/30 03:55:08;;;;;;;15.70;6.45;;;11.50;1.00;;;;;;5017864;28;20037;-91
2022/03/30 03:57:34;;;;;;;17.10;5.82;;;11.50;1.00;;;;;;5018862;28;20022;-90
2022/03/30 04:00:02;;;;;;;16.83;6.13;;;11.40;1.00;;;;;;5013784;28;20037;-91
2022/03/30 04:02:27;;;;;;;13.23;5.68;;;11.40;1.00;;;;;;5018212;28;20028;-90
2022/03/30 04:04:53;;;;;;;9.98;5.65;;;11.40;1.00;;;;;;5018058;28;20121;-90
2022/03/30 04:07:19;;;;;;;12.00;5.05;;;11.50;1.00;;;;;;5019109;28;20022;-91
2022/03/30 04:09:44;;;;;;;11.13;5.97;;;11.30;1.00;;;;;;5019354;28;20030;-91
2022/03/30 04:12:10;;;;;;;11.93;5.22;;;11.70;1.00;;;;;;5018174;28;20390;-90
2022/03/30 04:14:35;;;;;;;13.45;6.00;;;11.40;1.00;;;;;;5017861;28;20057;-90
2022/03/30 04:17:01;;;;;;;16.95;6.25;;;11.40;1.00;;;;;;5018371;28;20062;-91
2022/03/30 04:19:27;;;;;;;15.38;5.68;;;11.40;1.00;;;;;;5019050;28;20033;-90
2022/03/30 04:21:52;;;;;;;14.68;6.57;;;11.50;1.00;;;;;;5018428;28;20525;-90
2022/03/30 04:24:18;;;;;;;14.27;6.30;;;11.50;1.00;;;;;;5017645;28;20494;-90
2022/03/30 04:26:44;;;;;;;12.95;5.75;;;11.40;1.00;;;;;;5017662;28;20026;-91
2022/03/30 04:29:09;;;;;;;13.80;5.85;;;11.50;1.00;;;;;;5018829;28;20033;-91
2022/03/30 04:31:35;;;;;;;12.20;5.90;;;11.60;1.00;;;;;;5017940;28;20037;-90
2022/03/30 04:34:01;;;;;;;14.80;6.35;;;11.50;1.00;;;;;;5019165;28;20056;-90
2022/03/30 04:36:26;;;;;;;13.90;6.32;;;11.40;1.00;;;;;;5019382;28;20030;-91
2022/03/30 04:38:53;;;;;;;13.98;6.03;;;11.30;1.00;;;;;;5017518;28;20050;-91
2022/03/30 04:41:18;;;;;;;14.32;6.50;;;11.30;1.00;;;;;;5017368;28;20084;-91
2022/03/30 04:43:44;;;;;;;14.10;6.40;;;11.50;1.00;;;;;;5017887;28;20034;-91
2022/03/30 04:46:11;;;;;;;12.98;5.93;;;11.30;1.00;;;;;;5018659;28;20033;-91
2022/03/30 04:48:37;;;;;;;15.88;6.95;;;11.30;1.00;;;;;;5018310;28;20061;-91
2022/03/30 04:51:03;;;;;;;14.27;6.57;;;11.30;1.00;;;;;;5017721;28;20026;-91
2022/03/30 04:53:29;;;;;;;12.05;6.32;;;11.20;1.00;;;;;;5018637;28;20049;-90
2022/03/30 04:55:55;;;;;;;16.05;7.00;;;11.20;1.00;;;;;;5017804;28;20033;-90
2022/03/30 04:58:21;;;;;;;16.98;7.03;;;11.20;1.00;;;;;;5017689;28;22248;-91
2022/03/30 05:00:47;;;;;;;11.40;5.55;;;11.30;1.00;;;;;;5014701;28;20022;-90
2022/03/30 05:03:13;;;;;;;16.73;6.90;;;11.30;1.00;;;;;;5014944;28;20030;-90
2022/03/30 05:05:39;;;;;;;11.57;6.50;;;11.50;1.00;;;;;;5015521;28;20456;-90
2022/03/30 05:08:05;;;;;;;11.95;7.05;;;11.30;1.00;;;;;;5014207;28;20125;-91
2022/03/30 05:10:30;;;;;;;10.38;6.00;;;11.30;1.00;;;;;;5014424;28;20029;-91
2022/03/30 05:12:58;;;;;;;17.02;6.53;;;11.20;1.00;;;;;;5014605;28;20037;-91
2022/03/30 05:15:24;;;;;;;13.18;6.47;;;11.30;1.00;;;;;;4997862;28;20034;-91
2022/03/30 05:17:49;;;;;;;12.02;6.45;;;11.30;1.00;;;;;;5011042;28;20300;-90
2022/03/30 05:20:16;;;;;;;13.07;6.28;;;11.30;1.00;;;;;;5014477;28;20022;-91
2022/03/30 05:22:43;;;;;;;12.07;5.75;;;11.30;1.00;;;;;;5014160;28;20025;-91
2022/03/30 05:25:10;;;;;;;12.50;6.03;;;11.30;1.00;;;;;;5013962;28;20030;-91
2022/03/30 05:27:38;;;;;;;13.10;6.55;;;11.40;1.00;;;;;;5015611;28;20026;-91
2022/03/30 05:30:05;;;;;;;12.77;6.50;;;11.40;1.00;;;;;;5015238;28;20041;-91
2022/03/30 05:32:31;;;;;;;13.18;6.50;;;11.60;1.00;;;;;;5013628;28;20022;-90
2022/03/30 05:34:57;;;;;;;14.15;6.57;;;11.50;1.00;;;;;;5013813;28;20068;-91
2022/03/30 05:37:26;;;;;;;12.00;6.95;;;11.50;1.00;;;;;;5013134;28;20030;-91
2022/03/30 05:39:52;;;;;;;13.18;5.72;;;11.60;1.00;;;;;;5014544;28;20093;-90
2022/03/30 05:42:18;;;;;;;13.18;5.90;;;11.70;1.00;;;;;;5014413;28;20052;-90
2022/03/30 05:44:45;;;;;;;13.95;6.72;;;11.80;1.00;;;;;;5014555;28;20041;-91
2022/03/30 05:47:11;;;;;;;15.55;5.93;;;11.80;1.00;;;;;;5014801;28;20482;-91
2022/03/30 05:49:37;;;;;;;13.90;5.97;;;11.40;1.00;;;;;;5013469;28;20061;-91
2022/03/30 05:52:04;;;;;;;11.27;6.25;;;11.50;1.00;;;;;;5013484;28;20018;-91
2022/03/30 05:54:30;;;;;;;12.38;5.38;;;11.50;1.00;;;;;;5013872;28;20561;-91
2022/03/30 05:57:02;;;;;;;14.95;5.80;;;11.60;1.00;;;;;;5013203;28;20122;-90
2022/03/30 05:59:39;;;;;;;10.25;5.78;;;11.70;1.00;;;;;;5015046;28;20076;-90
2022/03/30 06:02:08;;;;;;;11.27;5.60;;;11.80;1.00;;;;;;5014107;28;20406;-91
2022/03/30 06:04:34;;;;;;;14.48;5.70;;;11.80;1.00;;;;;;5013422;28;20065;-92
2022/03/30 06:07:00;;;;;;;12.68;5.68;;;11.90;1.00;;;;;;5014441;28;20022;-91
2022/03/30 06:09:27;;;;;;;12.55;5.90;;;11.70;1.00;;;;;;5014634;28;20470;-91
2022/03/30 06:11:53;;;;;;;11.35;5.70;;;11.80;1.00;;;;;;5013407;28;20026;-92
2022/03/30 06:14:20;;;;;;;12.30;5.15;;;11.70;1.00;;;;;;5014069;28;20502;-91
2022/03/30 06:16:46;;;;;;;11.93;5.93;;;11.70;1.00;;;;;;5014270;28;20029;-91
2022/03/30 06:19:13;;;;;;;15.90;6.10;;;11.80;1.00;;;;;;5013710;28;20026;-90
2022/03/30 06:21:41;;;;;;;8.95;5.30;;;11.80;1.00;;;;;;5014345;28;20087;-90
2022/03/30 06:24:11;;;;;;;12.82;5.20;;;11.60;1.00;;;;;;5014319;28;20141;-91
2022/03/30 06:26:40;;;;;;;11.13;5.70;;;11.70;1.00;;;;;;5013708;28;20478;-91
2022/03/30 06:29:07;;;;;;;11.68;5.65;;;11.70;1.00;;;;;;5012652;28;20025;-91
2022/03/30 06:31:33;;;;;;;11.32;5.88;;;11.90;1.00;;;;;;5012737;28;20540;-90
2022/03/30 06:33:59;;;;;;;10.15;5.50;;;12.00;1.00;;;;;;5012567;28;20045;-90
2022/03/30 06:36:25;;;;;;;8.98;5.20;;;12.00;1.00;;;;;;4995310;28;20026;-90
2022/03/30 06:38:51;;;;;;;11.63;4.80;;;11.70;1.00;;;;;;5010369;28;20036;-91
2022/03/30 06:41:19;;;;;;;9.50;5.05;;;11.70;1.00;;;;;;5008518;28;20033;-90
2022/03/30 06:43:46;;;;;;;12.32;4.90;;;11.80;1.00;;;;;;5013650;28;20022;-91
2022/03/30 06:46:16;;;;;;;15.10;5.88;;;11.80;1.00;;;;;;5012252;28;20112;-91
2022/03/30 06:48:42;;;;;;;11.15;5.53;;;11.90;1.00;;;;;;5014143;28;20042;-90
2022/03/30 06:51:09;;;;;;;13.07;5.90;;;11.90;1.00;;;;;;5013514;28;20058;-91
2022/03/30 06:53:34;;;;;;;10.88;5.30;;;11.80;1.00;;;;;;5013067;28;20026;-91
2022/03/30 06:56:00;;;;;;;11.02;5.88;;;11.80;1.00;;;;;;5012125;28;20548;-90
2022/03/30 06:58:26;;;;;;;10.95;5.63;;;11.90;1.00;;;;;;5012673;28;20021;-91
2022/03/30 07:00:52;;;;;;;10.38;5.70;;;12.00;1.00;;;;;;5012940;28;20034;-90
2022/03/30 07:03:18;;;;;;;13.88;5.72;;;12.10;1.00;;;;;;5011938;28;20042;-91
2022/03/30 07:05:44;;;;;;;14.38;5.97;;;12.10;1.00;;;;;;5013301;28;20029;-91
2022/03/30 07:10:53;;;;;;;17.60;8.15;;;12.20;1.00;;;;;;5013732;28;20072;-91
2022/03/30 07:13:21;;;;;;;19.00;7.15;;;12.10;1.00;;;;;;5012545;28;20065;-91
2022/03/30 07:15:48;;;;;;;15.80;6.68;;;12.20;1.00;;;;;;5013561;28;20109;-91
2022/03/30 07:18:13;;;;;;;15.18;6.60;;;12.30;1.00;;;;;;5012542;28;20026;-91
2022/03/30 07:20:39;;;;;;;15.18;6.13;;;12.20;1.00;;;;;;5011833;28;20026;-91
2022/03/30 07:23:05;;;;;;;12.95;6.95;;;12.30;1.00;;;;;;5012987;28;20049;-91
2022/03/30 07:25:31;;;;;;;14.77;6.38;;;12.30;1.00;;;;;;5011803;28;20058;-91
2022/03/30 07:27:59;;;;;;;18.65;7.13;;;12.20;1.00;;;;;;5011982;28;20108;-91
2022/03/30 07:30:25;;;;;;;12.20;5.93;;;12.30;1.00;;;;;;5012466;28;20032;-91
2022/03/30 07:32:53;;;;;;;10.88;6.72;;;12.30;1.00;;;;;;5012584;28;20048;-92
2022/03/30 07:35:21;;;;;;;13.18;7.10;;;12.30;1.00;;;;;;5012713;28;20576;-91
2022/03/30 07:37:47;;;;;;;20.83;7.22;;;12.40;1.00;;;;;;5013210;28;20030;-90
2022/03/30 07:40:16;;;;;;;14.85;6.65;;;12.50;1.00;;;;;;5012103;28;20037;-91
2022/03/30 07:42:43;;;;;;;13.00;6.65;;;12.60;1.00;;;;;;5013769;28;20034;-91
2022/03/30 07:45:10;;;;;;;13.60;6.45;;;12.70;1.00;;;;;;5011116;28;20030;-91
2022/03/30 07:47:36;;;;;;;14.90;6.50;;;12.90;1.00;;;;;;5012939;28;20501;-91
2022/03/30 07:50:03;;;;;;;12.05;6.20;;;12.80;1.00;;;;;;5011532;28;20041;-91
2022/03/30 07:52:29;;;;;;;9.90;6.47;;;12.80;1.00;;;;;;5011671;28;20482;-91
2022/03/30 07:54:55;;;;;;;15.32;6.40;;;12.90;1.00;;;;;;5013305;28;20026;-91
2022/03/30 07:57:26;;;;;;;16.73;6.32;;;12.70;1.00;;;;;;5013098;28;20029;-91
2022/03/30 07:59:58;;;;;;;13.40;6.20;;;12.90;1.00;;;;;;5013345;28;20025;-91
2022/03/30 08:02:24;;;;;;;11.55;6.18;;;13.10;1.00;;;;;;5011199;28;20030;-91
2022/03/30 08:04:50;;;;;;;15.50;6.00;;;13.30;1.00;;;;;;5010889;28;20040;-91
2022/03/30 08:07:16;;;;;;;14.50;6.78;;;13.40;1.00;;;;;;5012996;28;20097;-91
2022/03/30 08:09:42;;;;;;;15.80;6.93;;;13.30;1.00;;;;;;5012002;28;20440;-91
2022/03/30 08:12:10;;;;;;;11.82;6.82;;;13.30;1.00;;;;;;5012779;28;20030;-91
2022/03/30 08:14:36;;;;;;;13.02;6.43;;;13.40;1.00;;;;;;5011710;28;20026;-91
2022/03/30 08:17:02;;;;;;;14.23;6.47;;;13.30;1.00;;;;;;5011866;28;20037;-91
2022/03/30 08:19:28;;;;;;;13.35;6.72;;;13.50;1.00;;;;;;5011844;28;20049;-91
2022/03/30 08:24:39;;;;;;;12.27;6.30;;;13.60;1.00;;;;;;5012930;28;20037;-91
2022/03/30 08:27:05;;;;;;;16.55;6.78;;;13.40;1.00;;;;;;5012561;28;20029;-91
2022/03/30 08:29:31;;;;;;;9.80;6.15;;;13.60;1.00;;;;;;5011333;28;20033;-85
2022/03/30 08:31:57;;;;;;;11.00;7.25;;;14.10;1.00;;;;;;5010429;28;20030;-81
2022/03/30 08:34:25;;;;;;;15.00;6.57;;;14.40;1.00;;;;;;5011856;28;20038;-81
2022/03/30 08:36:50;;;;;;;12.98;6.32;;;14.60;1.00;;;;;;5015168;28;20052;-81
2022/03/30 08:39:18;;;;;;;12.77;6.95;;;14.60;1.00;;;;;;5014609;28;20029;-81
2022/03/30 08:41:45;;;;;;;11.63;6.00;;;14.90;1.00;;;;;;5014580;28;20018;-81
2022/03/30 08:44:14;;;;;;;7.75;5.47;;;14.70;1.00;;;;;;5013996;28;20042;-81
2022/03/30 08:46:47;;;;;;;13.45;6.50;;;14.70;1.00;;;;;;5013946;28;20033;-81
2022/03/30 08:49:14;;;;;;;11.50;6.13;;;14.70;1.00;;;;;;5014490;28;20037;-81
2022/03/30 08:51:42;;;;;;;9.40;6.35;;;14.80;1.00;;;;;;5014555;28;20018;-81
2022/03/30 08:54:12;;;;;;;13.20;6.10;;;15.00;1.00;;;;;;5014331;28;20116;-81
2022/03/30 08:56:39;;;;;;;14.85;6.03;;;15.10;1.00;;;;;;5014017;28;20025;-81
2022/03/30 08:59:06;;;;;;;14.07;6.07;;;15.20;1.00;;;;;;5014204;28;20399;-81
2022/03/30 09:01:36;;;;;;;11.40;5.50;;;15.50;1.00;;;;;;5013795;28;20025;-81
2022/03/30 09:04:05;;;;;;;12.07;5.55;;;15.60;1.00;;;;;;5014151;28;20042;-81
2022/03/30 09:06:46;;;;;;;12.20;5.82;;;15.60;1.00;;;;;;5014444;28;20036;-81
2022/03/30 09:09:27;;;;;;;11.00;5.40;;;15.90;1.00;;;;;;5014033;28;20038;-81
2022/03/30 09:11:55;;;;;;;8.95;4.55;;;16.30;1.00;;;;;;5013541;28;20033;-81
2022/03/30 09:14:23;;;;;;;11.00;5.30;;;16.60;1.00;;;;;;5013361;28;20033;-81
2022/03/30 09:16:51;;;;;;;9.13;4.85;;;16.30;1.00;;;;;;5013629;28;20434;-81
2022/03/30 09:19:18;;;;;;;9.35;4.15;;;16.00;1.00;;;;;;4998552;28;20040;-81
2022/03/30 09:21:56;;;;;;;9.30;3.72;;;15.80;1.00;;;;;;5014513;28;20025;-81
2022/03/30 09:24:25;;;;;;;10.35;4.15;;;15.80;1.00;;;;;;5013325;28;20394;-81
2022/03/30 09:26:52;;;;;;;10.98;4.15;;;15.70;1.00;;;;;;5013407;28;20040;-81
2022/03/30 09:29:22;;;;;;;11.52;4.63;;;15.40;1.00;;;;;;5013417;28;20192;-80
2022/03/30 09:31:49;;;;;;;9.57;4.22;;;15.40;1.00;;;;;;5013360;28;20018;-80
2022/03/30 09:34:16;;;;;;;8.65;4.15;;;15.60;1.00;;;;;;5013580;28;20058;-81
2022/03/30 09:36:44;;;;;;;10.05;3.67;;;15.50;1.00;;;;;;5013913;28;20075;-81
2022/03/30 09:39:26;;;;;;;13.32;4.97;;;15.60;1.00;;;;;;5012858;28;20034;-81
2022/03/30 09:41:53;;;;;;;8.45;3.67;;;15.50;1.00;;;;;;5013333;28;20025;-81
2022/03/30 09:44:21;;;;;;;12.93;4.22;;;15.70;1.00;;;;;;5012975;28;20038;-81
2022/03/30 09:46:52;;;;;;;9.25;3.65;;;15.60;1.00;;;;;;5012676;28;20064;-81
2022/03/30 09:49:36;;;;;;;10.23;4.13;;;15.40;1.00;;;;;;4997978;28;20057;-81
2022/03/30 09:52:10;;;;;;;16.83;4.57;;;15.40;1.00;;;;;;5011266;28;20029;-81
2022/03/30 09:54:53;;;;;;;9.00;4.05;;;15.40;1.00;;;;;;5012481;28;20109;-81
2022/03/30 09:57:38;;;;;;;13.52;4.90;;;15.70;1.00;;;;;;5012636;28;20030;-82
2022/03/30 10:00:14;;;;;;;9.82;4.30;;;15.80;1.00;;;;;;5013713;28;20029;-83
2022/03/30 10:02:44;;;;;;;15.45;4.93;;;15.70;1.00;;;;;;5012629;28;20029;-83
2022/03/30 10:05:13;;;;;;;10.00;4.30;;;15.80;1.00;;;;;;5012594;28;20038;-84
2022/03/30 10:07:39;;;;;;;14.02;4.40;;;16.00;1.00;;;;;;5012640;28;20219;-83
2022/03/30 10:10:07;;;;;;;13.27;4.50;;;16.10;1.00;;;;;;5012633;28;20037;-84
2022/03/30 10:12:33;;;;;;;12.60;4.55;;;15.70;1.00;;;;;;5013255;28;20093;-83
2022/03/30 10:14:59;;;;;;;11.07;4.22;;;15.60;1.00;;;;;;5012738;28;20026;-83
2022/03/30 10:17:26;;;;;;;14.38;4.47;;;15.50;1.00;;;;;;5012400;28;20036;-82
2022/03/30 10:19:57;;;;;;;14.18;5.05;;;15.40;1.00;;;;;;5012256;28;20026;-84
2022/03/30 10:22:32;;;;;;;23.63;5.15;;;15.50;1.00;;;;;;5012593;28;20034;-82
2022/03/30 10:25:16;;;;;;;15.55;4.43;;;15.80;1.00;;;;;;5012584;28;20037;-82
2022/03/30 10:28:16;;;;;;;12.25;4.20;;;16.00;1.00;;;;;;5012194;28;20033;-82
2022/03/30 10:30:43;;;;;;;11.20;4.22;;;16.10;1.00;;;;;;5012988;28;20033;-83
2022/03/30 10:33:11;;;;;;;15.82;4.45;;;15.70;1.00;;;;;;5012498;28;20029;-83
2022/03/30 10:35:40;;;;;;;15.32;5.10;;;15.60;1.00;;;;;;5012014;28;20042;-83
2022/03/30 10:38:05;;;;;;;14.73;5.28;;;15.50;1.00;;;;;;5012297;28;20058;-83
2022/03/30 10:40:31;;;;;;;13.45;5.03;;;15.70;1.00;;;;;;5012073;28;20103;-83
2022/03/30 10:42:59;;;;;;;14.13;4.88;;;16.00;1.00;;;;;;5008332;28;20175;-82
2022/03/30 10:45:39;;;;;;;13.35;5.03;;;15.90;1.00;;;;;;5012783;28;20060;-83
2022/03/30 10:48:21;;;;;;;10.65;4.15;;;15.90;1.00;;;;;;5011640;28;20498;-83
2022/03/30 10:50:55;;;;;;;15.43;4.95;;;15.80;1.00;;;;;;5012586;28;20033;-81
2022/03/30 10:53:38;;;;;;;16.42;5.43;;;15.80;1.00;;;;;;5011882;28;20028;-83
2022/03/30 10:56:15;;;;;;;13.02;5.03;;;15.70;1.00;;;;;;5011233;28;20025;-83
2022/03/30 10:58:52;;;;;;;12.27;4.82;;;16.00;1.00;;;;;;5011872;28;20089;-82
2022/03/30 11:01:26;;;;;;;15.43;4.68;;;16.10;1.00;;;;;;4996711;28;20030;-82
2022/03/30 11:03:59;;;;;;;13.90;4.95;;;16.00;1.00;;;;;;5008982;28;20134;-84
2022/03/30 11:06:28;;;;;;;12.77;5.03;;;16.10;1.00;;;;;;5011513;28;20030;-82
2022/03/30 11:08:56;;;;;;;10.32;4.53;;;16.10;1.00;;;;;;5011283;28;20036;-82
2022/03/30 11:11:27;;;;;;;14.68;4.45;;;15.80;1.00;;;;;;5011188;28;20512;-84
2022/03/30 11:14:21;;;;;;;11.00;4.80;;;15.90;1.00;;;;;;5012100;28;20097;-81
2022/03/30 11:16:48;;;;;;;13.20;5.15;;;16.10;1.00;;;;;;5011671;28;20092;-82
2022/03/30 11:19:14;;;;;;;13.02;4.90;;;16.10;1.00;;;;;;5011371;28;20056;-82
2022/03/30 11:22:09;;;;;;;16.63;5.32;;;16.10;1.00;;;;;;5012101;28;20435;-82
2022/03/30 11:24:35;;;;;;;15.20;5.43;;;16.40;1.00;;;;;;5010510;28;20069;-82
2022/03/30 11:27:01;;;;;;;14.82;4.70;;;16.20;1.00;;;;;;5011051;28;20040;-82
2022/03/30 11:29:42;;;;;;;12.73;4.53;;;16.20;1.00;;;;;;5011428;28;20034;-82
2022/03/30 11:32:23;;;;;;;11.93;5.18;;;16.20;1.00;;;;;;5011285;28;20022;-82
2022/03/30 11:34:59;;;;;;;15.95;5.13;;;16.20;1.00;;;;;;5010929;28;20136;-82
2022/03/30 11:37:52;;;;;;;12.13;4.65;;;16.20;1.00;;;;;;4996917;28;20017;-82
2022/03/30 11:40:22;;;;;;;11.93;4.22;;;16.30;1.00;;;;;;4996569;28;20018;-82
2022/03/30 11:42:57;;;;;;;12.63;3.78;;;16.50;1.00;;;;;;5007920;28;20029;-82
2022/03/30 11:45:25;;;;;;;11.55;4.03;;;16.60;1.00;;;;;;5011091;28;20030;-82
2022/03/30 11:48:03;;;;;;;11.45;3.70;;;16.80;1.00;;;;;;5010976;28;20467;-82
2022/03/30 11:50:32;;;;;;;12.95;4.05;;;17.00;1.00;;;;;;5011060;28;20449;-83
2022/03/30 11:53:02;;;;;;;11.85;4.70;;;17.00;1.00;;;;;;5011226;28;20032;-82
2022/03/30 11:55:38;;;;;;;11.52;4.57;;;16.90;1.00;;;;;;5010901;28;20032;-82
2022/03/30 11:58:05;;;;;;;12.05;4.57;;;16.80;1.00;;;;;;5011412;28;20026;-82
2022/03/30 12:00:32;;;;;;;15.05;5.15;;;16.70;1.00;;;;;;5011644;28;20029;-82
2022/03/30 12:03:00;;;;;;;14.75;5.10;;;16.80;1.00;;;;;;5010954;28;20109;-82
2022/03/30 12:05:26;;;;;;;15.73;4.80;;;16.80;1.00;;;;;;5011300;28;20042;-82
2022/03/30 12:07:54;;;;;;;13.95;4.60;;;16.90;1.00;;;;;;5010914;28;20034;-82
2022/03/30 12:10:26;;;;;;;14.00;4.55;;;17.00;1.00;;;;;;5014918;28;20129;-82
2022/03/30 12:12:52;;;;;;;12.30;4.28;;;17.00;1.00;;;;;;5015467;28;20045;-82
2022/03/30 12:15:19;;;;;;;12.93;4.45;;;16.90;1.00;;;;;;5015170;28;20038;-82
2022/03/30 12:17:53;;;;;;;11.05;4.47;;;16.90;1.00;;;;;;5014961;28;20022;-82
2022/03/30 12:20:30;;;;;;;9.82;4.55;;;17.00;1.00;;;;;;5014563;28;20072;-82
2022/03/30 12:23:04;;;;;;;13.65;4.38;;;16.80;1.00;;;;;;5014104;28;20033;-82
2022/03/30 12:25:33;;;;;;;11.65;4.32;;;16.60;1.00;;;;;;5015209;28;20036;-82
2022/03/30 12:28:00;;;;;;;12.93;4.45;;;16.50;1.00;;;;;;5015053;28;20017;-82
2022/03/30 12:30:29;;;;;;;17.08;4.72;;;16.60;1.00;;;;;;5014886;28;20113;-82
2022/03/30 12:32:55;;;;;;;14.32;4.20;;;16.80;1.00;;;;;;5014240;28;20084;-82
2022/03/30 12:35:21;;;;;;;12.90;4.63;;;16.70;1.00;;;;;;5014653;28;20050;-82
2022/03/30 12:37:49;;;;;;;10.20;4.90;;;16.90;1.00;;;;;;5013878;28;20401;-82
2022/03/30 12:40:20;;;;;;;15.15;4.30;;;16.70;1.00;;;;;;5014700;28;20034;-82
2022/03/30 12:42:47;;;;;;;14.85;4.80;;;16.70;1.00;;;;;;5010910;28;20022;-82
2022/03/30 12:45:15;;;;;;;11.57;4.30;;;16.70;1.00;;;;;;5014665;28;20034;-82
2022/03/30 12:47:55;;;;;;;15.13;5.05;;;16.80;1.00;;;;;;5014076;28;20030;-82
2022/03/30 12:50:29;;;;;;;13.60;4.50;;;16.90;1.00;;;;;;5014309;28;20030;-82
2022/03/30 12:53:06;;;;;;;18.83;5.00;;;16.90;1.00;;;;;;5013707;28;20398;-82
2022/03/30 12:55:36;;;;;;;17.63;4.40;;;17.00;1.00;;;;;;5014151;28;20061;-82
2022/03/30 12:58:18;;;;;;;12.07;4.20;;;17.00;1.00;;;;;;5013779;28;20033;-82
2022/03/30 13:00:46;;;;;;;14.65;4.43;;;17.30;1.00;;;;;;5010602;28;20033;-82